Time;durP1;ratioP1;P1;durP2;ratioP2;P2;SDS_P1;SDS_P2;PMS_P1;PMS_P2;Temp;Humidity;BMP_temperature;BMP_pressure;BME280_temperature;BME280_humidity;BME280_pressure;Samples;Min_cycle;Max_cycle;Signal;HPM_P1;HPM_P2
2021/05/20 00:07:22;;;;;;;1.47;1.07;;;15.30;67.10;;;;;;20970163;28;20344;-73
2021/05/20 00:17:23;;;;;;;1.60;1.00;;;15.30;67.20;;;;;;20986307;28;20287;-73
2021/05/20 00:27:23;;;;;;;1.75;0.85;;;15.20;67.20;;;;;;20953197;28;20298;-73
2021/05/20 00:37:24;;;;;;;3.50;0.82;;;15.30;67.30;;;;;;20951662;28;20047;-73
2021/05/20 00:47:26;;;;;;;1.67;0.98;;;15.20;67.30;;;;;;20966768;28;20049;-73
2021/05/20 00:57:27;;;;;;;1.35;1.00;;;15.20;67.30;;;;;;20950009;28;20049;-74
2021/05/20 01:07:28;;;;;;;1.60;1.08;;;15.20;67.30;;;;;;20965541;28;20738;-74
2021/05/20 01:17:28;;;;;;;1.80;1.23;;;15.20;67.40;;;;;;20997932;28;20139;-73
2021/05/20 01:27:29;;;;;;;1.20;1.10;;;15.10;67.40;;;;;;20947571;28;20455;-72
2021/05/20 01:37:29;;;;;;;1.02;0.75;;;15.20;67.40;;;;;;20979607;28;20364;-73
2021/05/20 01:47:30;;;;;;;1.50;1.00;;;15.20;67.40;;;;;;20971020;28;20485;-73
2021/05/20 01:57:31;;;;;;;2.10;1.17;;;15.10;67.40;;;;;;20943919;28;20048;-74
2021/05/20 02:07:31;;;;;;;1.73;1.17;;;15.10;67.40;;;;;;20977444;28;20036;-73
2021/05/20 02:17:32;;;;;;;1.70;1.08;;;15.20;67.50;;;;;;20978300;28;20108;-74
2021/05/20 02:27:32;;;;;;;1.25;1.00;;;15.10;67.40;;;;;;20976381;28;20137;-74
2021/05/20 02:37:33;;;;;;;1.80;1.20;;;15.10;67.40;;;;;;20942255;28;20033;-73
2021/05/20 02:47:34;;;;;;;2.42;1.40;;;15.10;67.40;;;;;;20940996;28;20059;-73
2021/05/20 02:57:35;;;;;;;4.55;1.50;;;15.10;67.40;;;;;;20940566;28;20036;-74
2021/05/20 03:07:35;;;;;;;2.13;1.42;;;15.10;67.40;;;;;;20939022;28;20502;-72
2021/05/20 03:17:36;;;;;;;7.40;1.95;;;15.10;67.30;;;;;;20939057;28;20734;-74
2021/05/20 03:27:37;;;;;;;1.63;1.27;;;15.10;67.30;;;;;;20954841;28;20482;-73
2021/05/20 03:37:37;;;;;;;2.03;1.80;;;15.00;67.20;;;;;;20955389;28;20270;-74
2021/05/20 03:47:39;;;;;;;3.00;2.22;;;15.00;67.20;;;;;;20953310;28;20033;-74
2021/05/20 03:57:39;;;;;;;5.28;2.10;;;15.10;67.30;;;;;;20953667;28;20529;-71
2021/05/20 04:07:40;;;;;;;1.90;1.38;;;15.10;67.20;;;;;;20970191;28;20068;-72
2021/05/20 04:17:40;;;;;;;3.05;1.65;;;15.00;67.10;;;;;;20978248;28;20037;-72
2021/05/20 04:27:41;;;;;;;2.70;1.80;;;15.00;67.10;;;;;;20968603;28;20047;-73
2021/05/20 04:37:42;;;;;;;2.72;1.73;;;15.00;67.10;;;;;;20984670;28;20357;-72
2021/05/20 04:47:44;;;;;;;2.60;1.95;;;15.00;67.10;;;;;;20984292;28;20383;-72
2021/05/20 04:57:44;;;;;;;2.15;1.48;;;15.00;67.10;;;;;;20949847;28;20127;-72
2021/05/20 05:07:45;;;;;;;3.42;1.98;;;15.00;67.10;;;;;;20965350;28;20054;-73
2021/05/20 05:17:45;;;;;;;3.30;1.92;;;15.00;67.10;;;;;;20964031;28;20054;-73
2021/05/20 05:27:46;;;;;;;2.53;1.70;;;15.00;67.00;;;;;;20979380;28;20048;-72
2021/05/20 05:37:47;;;;;;;3.75;2.05;;;15.00;67.00;;;;;;20963437;28;20028;-72
2021/05/20 05:47:47;;;;;;;2.58;1.38;;;15.00;66.90;;;;;;20962436;28;20040;-75
2021/05/20 05:57:48;;;;;;;1.92;1.50;;;14.90;66.80;;;;;;20978154;28;20040;-73
2021/05/20 06:07:48;;;;;;;2.83;1.70;;;15.00;66.90;;;;;;20961492;28;20137;-72
2021/05/20 06:17:49;;;;;;;2.25;1.48;;;14.90;66.80;;;;;;20973521;28;20035;-73
2021/05/20 06:27:50;;;;;;;2.45;1.30;;;14.90;66.80;;;;;;20968647;28;20048;-75
2021/05/20 06:37:50;;;;;;;2.58;1.45;;;15.00;66.80;;;;;;20940218;28;20567;-74
2021/05/20 06:47:52;;;;;;;2.67;1.60;;;14.90;67.40;;;;;;20954655;28;20524;-76
2021/05/20 07:08:12;;;;;;;2.60;1.58;;;15.00;66.70;;;;;;20987920;28;20471;-74
2021/05/20 07:18:12;;;;;;;2.22;1.10;;;15.00;66.70;;;;;;20937406;28;20028;-75
2021/05/20 07:28:13;;;;;;;1.85;0.93;;;15.00;66.60;;;;;;20973180;28;20032;-78
2021/05/20 07:38:14;;;;;;;1.05;0.82;;;15.00;66.50;;;;;;20970348;28;20063;-72
2021/05/20 07:48:14;;;;;;;2.67;1.00;;;15.10;66.50;;;;;;20970011;28;20037;-73
2021/05/20 07:58:15;;;;;;;3.30;0.95;;;15.10;67.10;;;;;;20969463;28;20105;-73
2021/05/20 08:18:31;;;;;;;4.10;1.00;;;15.10;66.40;;;;;;20970978;28;20513;-72
2021/05/20 08:28:32;;;;;;;1.88;1.17;;;15.10;66.40;;;;;;20963995;28;20036;-72
2021/05/20 08:38:32;;;;;;;1.47;1.20;;;15.10;66.30;;;;;;20951056;28;20462;-73
2021/05/20 08:48:33;;;;;;;1.75;1.15;;;15.10;66.20;;;;;;20967117;28;20291;-72
2021/05/20 08:58:33;;;;;;;2.03;1.10;;;15.20;66.20;;;;;;21332125;22;20298;-70
2021/05/20 09:08:35;;;;;;;1.83;1.05;;;15.20;66.10;;;;;;20815003;28;20136;-70
2021/05/20 09:18:38;;;;;;;0.90;0.70;;;15.20;66.00;;;;;;20815751;28;20060;-73
2021/05/20 09:28:42;;;;;;;1.02;0.60;;;15.20;65.80;;;;;;20814625;28;20099;-69
2021/05/20 09:38:42;;;;;;;1.55;0.90;;;15.20;65.70;;;;;;20829080;28;20033;-71
2021/05/20 09:48:45;;;;;;;1.50;0.60;;;15.20;65.50;;;;;;20810993;28;20040;-71
2021/05/20 10:10:09;;;;;;;2.55;1.20;;;15.10;64.80;;;;;;20827648;28;20111;-71
2021/05/20 10:20:15;;;;;;;1.85;1.15;;;15.20;64.40;;;;;;20810881;28;20519;-74
2021/05/20 10:30:16;;;;;;;2.23;1.10;;;15.20;64.20;;;;;;20827569;28;20033;-74
2021/05/20 10:40:25;;;;;;;2.70;1.10;;;15.20;63.90;;;;;;20812204;28;20133;-78
2021/05/20 10:50:58;;;;;;;3.00;1.42;;;15.20;63.60;;;;;;20844379;28;20101;-73
2021/05/20 11:00:58;;;;;;;1.83;1.00;;;15.20;63.40;;;;;;20870227;28;20040;-72
2021/05/20 11:11:00;;;;;;;1.88;0.95;;;15.20;63.20;;;;;;20783472;28;20035;-74
2021/05/20 11:21:00;;;;;;;0.90;0.60;;;15.20;63.00;;;;;;20898619;28;20449;-74
2021/05/20 11:31:01;;;;;;;1.08;0.60;;;15.20;62.80;;;;;;20874642;28;20036;-74
2021/05/20 11:41:12;;;;;;;1.42;0.60;;;15.20;62.60;;;;;;20873329;28;20037;-72
2021/05/20 11:51:12;;;;;;;0.50;0.50;;;15.20;62.40;;;;;;20850771;28;20025;-74
2021/05/20 12:01:21;;;;;;;1.23;0.50;;;15.20;62.50;;;;;;20796844;28;20119;-74
2021/05/20 12:11:26;;;;;;;1.05;0.57;;;15.20;62.40;;;;;;20887022;28;20486;-73
2021/05/20 12:21:28;;;;;;;1.60;0.88;;;15.20;62.40;;;;;;20840784;28;20059;-75
2021/05/20 12:31:29;;;;;;;1.65;0.80;;;15.20;62.00;;;;;;20835005;28;20083;-78
2021/05/20 12:41:34;;;;;;;2.40;0.70;;;15.20;61.80;;;;;;20821581;28;20065;-79
2021/05/20 12:51:38;;;;;;;2.10;1.20;;;15.10;61.60;;;;;;20823971;28;20517;-78
2021/05/20 13:01:50;;;;;;;3.05;0.73;;;15.10;61.80;;;;;;20838947;28;20387;-78
2021/05/20 13:11:58;;;;;;;1.92;0.70;;;15.10;62.00;;;;;;20817376;28;20041;-75
2021/05/20 13:22:31;;;;;;;0.70;0.60;;;15.10;62.20;;;;;;20777370;28;20033;-75
2021/05/20 13:42:34;;;;;;;0.40;0.35;;;15.20;63.10;;;;;;20813319;28;20045;-77
2021/05/20 13:52:40;;;;;;;1.15;0.50;;;15.30;63.40;;;;;;20796067;28;20430;-76
2021/05/20 14:02:42;;;;;;;0.47;0.40;;;15.40;63.60;;;;;;20797312;28;20049;-75
2021/05/20 14:12:46;;;;;;;0.50;0.40;;;15.50;63.70;;;;;;20795715;28;20472;-76
2021/05/20 14:22:46;;;;;;;1.30;0.73;;;15.60;63.70;;;;;;20795668;28;20303;-75
2021/05/20 14:32:48;;;;;;;2.13;0.57;;;15.60;63.50;;;;;;20794148;28;20041;-74
2021/05/20 14:42:49;;;;;;;1.15;0.52;;;15.60;63.30;;;;;;20792883;28;20041;-74
2021/05/20 14:52:49;;;;;;;2.10;0.40;;;15.80;63.20;;;;;;20792253;28;20052;-72
2021/05/20 15:13:19;;;;;;;1.50;0.70;;;16.00;62.80;;;;;;20821546;28;20038;-75
2021/05/20 15:23:19;;;;;;;1.40;0.63;;;16.00;62.70;;;;;;20823650;28;20087;-75
2021/05/20 15:33:20;;;;;;;1.50;0.47;;;16.10;62.60;;;;;;20806487;28;20033;-75
2021/05/20 15:43:21;;;;;;;1.10;0.40;;;16.10;62.70;;;;;;20805254;28;20048;-75
2021/05/20 15:53:22;;;;;;;0.70;0.70;;;16.10;62.80;;;;;;20804863;28;20132;-76
2021/05/20 16:03:23;;;;;;;0.43;0.43;;;16.10;62.80;;;;;;20798855;28;20053;-75
2021/05/20 16:33:54;;;;;;;1.45;0.63;;;16.30;62.20;;;;;;20842029;28;20045;-79
2021/05/20 16:43:56;;;;;;;1.42;0.68;;;16.30;62.00;;;;;;20819265;28;20029;-81
2021/05/20 16:54:02;;;;;;;2.88;0.60;;;16.30;61.90;;;;;;20835533;28;20038;-77
2021/05/20 17:04:04;;;;;;;0.77;0.55;;;16.30;62.00;;;;;;20756235;28;20038;-74
2021/05/20 17:14:04;;;;;;;0.63;0.50;;;16.30;62.10;;;;;;20749215;28;20056;-74
2021/05/20 17:24:08;;;;;;;0.82;0.55;;;16.20;62.10;;;;;;20749361;28;20369;-74
2021/05/20 17:34:09;;;;;;;0.38;0.38;;;16.10;62.10;;;;;;20733241;28;20046;-73
2021/05/20 17:44:09;;;;;;;0.70;0.60;;;16.10;62.20;;;;;;20733095;28;20038;-75
2021/05/20 17:54:13;;;;;;;2.28;0.85;;;16.10;62.40;;;;;;20801399;28;20137;-78
2021/05/20 18:04:15;;;;;;;0.60;0.60;;;16.00;62.50;;;;;;20851606;28;20041;-83
2021/05/20 18:14:22;;;;;;;1.50;0.70;;;16.00;62.60;;;;;;20768493;28;20038;-76
2021/05/20 18:24:23;;;;;;;1.05;0.70;;;15.90;62.70;;;;;;20785250;28;20533;-76
2021/05/20 18:34:25;;;;;;;1.00;0.43;;;15.90;62.90;;;;;;20799081;28;20069;-83
2021/05/20 18:45:03;;;;;;;4.55;0.80;;;15.90;63.10;;;;;;20817880;28;20040;-76
2021/05/20 18:54:57;;;;;;;1.37;0.87;;;15.90;63.10;;;;;;20802382;28;20049;-76
2021/05/20 19:04:58;;;;;;;0.83;0.50;;;15.80;63.20;;;;;;20799639;28;20037;-77
2021/05/20 19:15:01;;;;;;;1.63;0.60;;;15.80;63.40;;;;;;20819432;28;20037;-77
2021/05/20 19:25:02;;;;;;;0.93;0.60;;;15.90;63.60;;;;;;20827585;28;20033;-76
2021/05/20 19:35:03;;;;;;;1.67;0.70;;;15.80;63.70;;;;;;20827435;28;20119;-77
2021/05/20 19:45:05;;;;;;;2.35;0.70;;;15.80;63.80;;;;;;20803473;28;20064;-75
2021/05/20 20:05:11;;;;;;;0.55;0.40;;;15.80;64.10;;;;;;20683436;28;20041;-79
2021/05/20 20:15:12;;;;;;;0.73;0.63;;;15.70;64.30;;;;;;20733334;28;20042;-76
2021/05/20 20:45:36;;;;;;;0.60;0.50;;;15.70;64.50;;;;;;20726163;28;20573;-76
2021/05/20 20:55:37;;;;;;;1.10;0.80;;;15.60;64.50;;;;;;20741968;28;20113;-75
2021/05/20 21:05:37;;;;;;;2.20;0.82;;;15.60;64.60;;;;;;20738085;28;20036;-76
2021/05/20 21:15:38;;;;;;;0.38;0.30;;;15.60;64.60;;;;;;20832136;28;20030;-76
2021/05/20 21:25:39;;;;;;;1.83;0.70;;;15.60;64.70;;;;;;20801953;28;20042;-75
2021/05/20 21:35:40;;;;;;;1.48;0.60;;;15.60;64.70;;;;;;20833942;28;20346;-75
2021/05/20 21:45:43;;;;;;;1.02;0.68;;;15.60;64.80;;;;;;20800353;28;20042;-76
2021/05/20 21:55:43;;;;;;;0.88;0.60;;;15.60;64.80;;;;;;20784769;28;20040;-76
2021/05/20 22:05:44;;;;;;;1.05;0.70;;;15.60;65.00;;;;;;20865011;28;20470;-75
2021/05/20 22:15:45;;;;;;;1.25;0.63;;;15.60;64.90;;;;;;20880528;28;20478;-75
2021/05/20 22:26:00;;;;;;;1.13;0.53;;;15.60;64.90;;;;;;20896165;28;20033;-76
2021/05/20 22:36:02;;;;;;;1.38;0.93;;;15.60;64.90;;;;;;20881110;28;20299;-75
2021/05/20 22:46:02;;;;;;;3.83;0.80;;;15.60;65.00;;;;;;20893934;28;20530;-76
2021/05/20 22:56:04;;;;;;;1.08;0.68;;;15.60;65.00;;;;;;20862028;28;20037;-76
2021/05/20 23:06:06;;;;;;;0.73;0.55;;;15.60;65.00;;;;;;20877358;28;20090;-75
2021/05/20 23:16:06;;;;;;;1.10;0.60;;;15.50;65.00;;;;;;20875898;28;20025;-75
2021/05/20 23:26:08;;;;;;;1.55;0.68;;;15.50;65.00;;;;;;20858606;28;20127;-75
2021/05/20 23:36:09;;;;;;;1.00;0.68;;;15.60;65.10;;;;;;20840798;28;20380;-75
2021/05/20 23:46:11;;;;;;;1.20;0.77;;;15.50;65.00;;;;;;20758411;28;20046;-76
2021/05/20 23:56:11;;;;;;;0.95;0.70;;;15.50;65.00;;;;;;20742998;28;20299;-76
